Time;durP1;ratioP1;P1;durP2;ratioP2;P2;SDS_P1;SDS_P2;PMS_P1;PMS_P2;Temp;Humidity;BMP_temperature;BMP_pressure;BME280_temperature;BME280_humidity;BME280_pressure;Samples;Min_cycle;Max_cycle;Signal;HPM_P1;HPM_P2
2023/04/08 00:00:30;;;;;;;88.55;25.55;;;4.90;99.90;;;3.27;100.00;101942.88;5007296;28;20045;-76
2023/04/08 00:02:56;;;;;;;79.15;23.38;;;4.80;99.90;;;3.21;100.00;101943.72;4980997;28;20091;-76
2023/04/08 00:05:22;;;;;;;50.78;15.05;;;4.80;99.90;;;3.13;100.00;101939.34;5010774;28;20025;-77
2023/04/08 00:07:55;;;;;;;102.32;25.60;;;4.80;99.90;;;3.21;100.00;101937.66;4978962;28;20056;-77
2023/04/08 00:10:21;;;;;;;111.55;28.42;;;4.80;99.90;;;3.23;100.00;101935.91;4966602;28;20018;-77
2023/04/08 00:12:47;;;;;;;128.18;29.35;;;4.90;99.90;;;3.27;100.00;101942.88;4948494;28;20041;-76
2023/04/08 00:15:13;;;;;;;124.07;26.63;;;4.90;99.90;;;3.28;100.00;101940.28;4983695;28;20033;-77
2023/04/08 00:17:40;;;;;;;72.07;17.00;;;4.90;99.90;;;3.24;100.00;101933.34;5005310;28;20423;-76
2023/04/08 00:20:09;;;;;;;114.82;27.60;;;4.90;99.90;;;3.32;100.00;101933.34;4996345;28;20033;-77
2023/04/08 00:22:35;;;;;;;106.38;23.30;;;4.90;99.90;;;3.26;100.00;101938.50;5010512;28;20038;-76
2023/04/08 00:25:01;;;;;;;124.40;25.13;;;4.90;99.90;;;3.22;100.00;101948.06;4959542;28;20039;-75
2023/04/08 00:27:27;;;;;;;141.43;25.30;;;4.80;99.90;;;3.18;100.00;101938.50;4977297;28;20056;-76
2023/04/08 00:29:53;;;;;;;103.72;21.35;;;4.80;99.90;;;3.14;100.00;101941.97;5000291;28;20390;-77
2023/04/08 00:32:19;;;;;;;123.57;26.75;;;4.80;99.90;;;3.13;100.00;101937.59;4964891;28;20414;-76
2023/04/08 00:34:45;;;;;;;92.05;21.95;;;4.70;99.90;;;3.03;100.00;101941.91;4984429;28;20401;-76
2023/04/08 00:37:12;;;;;;;109.13;25.40;;;4.70;99.90;;;3.11;100.00;101941.97;4982790;28;20052;-77
2023/04/08 00:39:38;;;;;;;123.32;27.52;;;4.70;99.90;;;3.12;100.00;101935.88;5002418;28;20041;-77
2023/04/08 00:42:04;;;;;;;107.57;24.35;;;4.70;99.90;;;3.11;100.00;101938.47;4972514;28;20079;-77
2023/04/08 00:44:30;;;;;;;154.02;26.75;;;4.80;99.90;;;3.18;100.00;101932.44;4986857;28;20506;-76
2023/04/08 00:46:56;;;;;;;152.98;27.50;;;4.80;99.90;;;3.15;100.00;101928.06;5002585;28;20037;-76
2023/04/08 00:49:22;;;;;;;151.50;23.52;;;4.80;99.90;;;3.20;100.00;101934.19;4993447;28;20033;-77
2023/04/08 00:51:50;;;;;;;147.07;21.75;;;4.80;99.90;;;3.19;100.00;101936.78;4984452;28;20036;-76
2023/04/08 00:54:19;;;;;;;97.40;18.55;;;4.80;99.90;;;3.11;100.00;101926.34;4980342;28;20050;-76
2023/04/08 00:56:45;;;;;;;74.40;16.52;;;4.80;99.90;;;3.11;100.00;101935.88;5009835;28;20430;-76
2023/04/08 00:59:11;;;;;;;100.00;20.30;;;4.80;99.90;;;3.15;100.00;101938.47;4971108;28;20044;-76
2023/04/08 01:02:00;;;;;;;145.95;27.27;;;4.80;99.90;;;3.17;100.00;101938.50;4994540;28;20081;-77
2023/04/08 01:05:14;;;;;;;117.13;26.45;;;4.70;99.90;;;3.10;100.00;101944.56;4987943;28;20039;-76
2023/04/08 01:07:49;;;;;;;130.50;26.20;;;4.80;99.90;;;3.18;100.00;101943.72;5007601;28;20034;-77
2023/04/08 01:10:26;;;;;;;122.65;28.15;;;4.80;99.90;;;3.15;100.00;101942.81;4990140;28;20042;-76
2023/04/08 01:13:02;;;;;;;80.70;17.90;;;4.70;99.90;;;3.06;100.00;101938.47;4976781;28;20044;-77
2023/04/08 01:15:34;;;;;;;111.40;23.55;;;4.70;99.90;;;3.08;100.00;101932.38;5001342;28;20553;-76
2023/04/08 01:18:08;;;;;;;129.07;30.05;;;4.80;99.90;;;3.15;100.00;101935.00;4993360;28;20064;-77
2023/04/08 01:20:35;;;;;;;137.00;28.25;;;4.70;99.90;;;3.10;100.00;101939.34;4989094;28;20515;-77
2023/04/08 01:23:02;;;;;;;185.38;34.25;;;4.80;99.90;;;3.21;100.00;101943.72;4960359;28;20042;-76
2023/04/08 01:25:38;;;;;;;72.65;17.98;;;4.80;99.90;;;3.08;100.00;101949.75;4990209;28;20037;-78
2023/04/08 01:28:14;;;;;;;100.72;23.15;;;4.70;99.90;;;3.08;100.00;101955.81;4989672;28;20132;-76
2023/04/08 01:30:42;;;;;;;155.15;26.00;;;4.70;99.90;;;3.03;100.00;101957.53;4979081;28;20034;-76
2023/04/08 01:33:12;;;;;;;158.90;30.25;;;4.70;99.90;;;3.14;100.00;101954.13;4993307;28;20021;-76
2023/04/08 01:35:38;;;;;;;148.57;28.20;;;4.70;99.90;;;3.14;100.00;101957.59;5000288;28;20025;-76
2023/04/08 01:38:08;;;;;;;124.63;21.35;;;4.80;99.90;;;3.12;100.00;101969.72;4992680;28;20050;-77
2023/04/08 01:40:36;;;;;;;150.38;25.13;;;4.70;99.90;;;3.01;100.00;101963.59;5001614;28;20164;-77
2023/04/08 01:43:06;;;;;;;135.07;24.17;;;4.70;99.90;;;3.03;100.00;101975.75;4963177;28;20493;-76
2023/04/08 01:45:32;;;;;;;235.50;32.88;;;4.70;99.90;;;3.06;100.00;101980.97;4971140;28;20029;-77
2023/04/08 01:48:00;;;;;;;237.93;35.17;;;4.70;99.90;;;3.07;100.00;101987.91;4968931;28;20060;-78
2023/04/08 01:50:27;;;;;;;229.70;33.42;;;4.70;99.90;;;3.08;100.00;101981.84;4997516;28;20083;-76
2023/04/08 01:52:56;;;;;;;221.88;32.72;;;4.70;99.90;;;3.08;100.00;101991.38;4988421;28;20393;-76
2023/04/08 01:55:23;;;;;;;214.35;33.65;;;4.80;99.90;;;3.22;100.00;101996.66;4982753;28;20047;-76
2023/04/08 01:57:52;;;;;;;233.23;37.90;;;4.80;99.90;;;3.31;100.00;102001.03;4908279;28;1101715;-76
2023/04/08 02:00:23;;;;;;;268.00;36.67;;;4.80;99.90;;;3.24;100.00;101994.91;4972965;28;20053;-76
2023/04/08 02:02:50;;;;;;;290.42;40.83;;;4.80;99.90;;;3.27;100.00;102001.00;4996846;28;20564;-76
2023/04/08 02:05:16;;;;;;;254.30;38.92;;;4.90;99.90;;;3.29;100.00;102003.63;4999769;28;20046;-76
2023/04/08 02:07:44;;;;;;;216.02;37.25;;;4.90;99.90;;;3.36;100.00;101994.09;4982928;28;20037;-76
2023/04/08 02:10:10;;;;;;;241.27;36.05;;;4.80;99.90;;;3.24;100.00;102001.00;4985689;28;20063;-77
2023/04/08 02:12:38;;;;;;;288.27;40.13;;;4.90;99.90;;;3.25;100.00;102000.13;4991717;28;20053;-76
2023/04/08 02:15:07;;;;;;;128.23;22.40;;;4.80;99.90;;;3.08;100.00;101997.44;4974292;28;20036;-76
2023/04/08 02:17:53;;;;;;;214.10;37.05;;;4.80;99.90;;;3.17;100.00;101996.63;4981953;28;20124;-77
2023/04/08 02:20:42;;;;;;;182.82;30.90;;;4.80;99.90;;;3.18;100.00;101989.72;5008262;28;20041;-76
2023/04/08 02:23:21;;;;;;;181.05;31.38;;;4.80;99.90;;;3.16;100.00;101986.22;4968837;28;20041;-76
2023/04/08 02:25:49;;;;;;;177.88;32.72;;;4.80;99.90;;;3.10;100.00;101991.41;5001910;28;20025;-76
2023/04/08 02:28:18;;;;;;;57.15;16.70;;;4.60;99.90;;;2.93;100.00;101979.16;4997990;28;20034;-76
2023/04/08 02:30:50;;;;;;;180.98;30.27;;;4.60;99.90;;;3.03;100.00;101990.50;5004357;28;20061;-77
2023/04/08 02:33:22;;;;;;;147.45;28.00;;;4.60;99.90;;;3.03;100.00;101980.09;4995462;28;20036;-76
2023/04/08 02:35:57;;;;;;;139.88;31.90;;;4.70;99.90;;;3.08;100.00;101989.66;5010953;28;20379;-76
2023/04/08 02:38:26;;;;;;;149.65;29.13;;;4.70;99.90;;;3.15;100.00;101985.34;4995424;28;20029;-76
2023/04/08 02:40:52;;;;;;;152.48;31.73;;;4.70;99.90;;;3.04;100.00;101993.09;4973059;28;20715;-76
2023/04/08 02:43:17;;;;;;;153.40;31.80;;;4.60;99.90;;;3.03;100.00;102000.91;4990579;28;20038;-78
2023/04/08 02:45:46;;;;;;;143.27;31.83;;;4.70;99.90;;;3.08;100.00;102001.78;4994300;28;20502;-76
2023/04/08 02:48:12;;;;;;;116.93;25.40;;;4.60;99.90;;;3.00;100.00;102001.78;4994392;28;20042;-76
2023/04/08 02:50:39;;;;;;;88.40;21.95;;;4.70;99.90;;;3.05;100.00;102004.41;4994331;28;20087;-77
2023/04/08 02:53:05;;;;;;;117.32;30.38;;;4.60;99.90;;;3.01;100.00;102010.44;4996811;28;20101;-76
2023/04/08 02:55:31;;;;;;;86.47;23.85;;;4.60;99.90;;;2.99;100.00;102006.97;5013240;28;20025;-75
2023/04/08 02:57:56;;;;;;;122.55;28.73;;;4.70;99.90;;;3.07;100.00;101997.47;4994184;28;20494;-77
2023/04/08 03:00:26;;;;;;;98.47;23.23;;;;;;;3.03;100.00;102006.97;4978696;28;20026;-77
2023/04/08 03:02:51;;;;;;;135.57;32.10;;;4.70;99.90;;;3.03;100.00;101996.56;4991968;28;20517;-76
2023/04/08 03:05:17;;;;;;;92.65;27.92;;;4.70;99.90;;;3.07;100.00;102013.94;4983880;28;20134;-75
2023/04/08 03:07:43;;;;;;;96.47;27.85;;;4.70;99.90;;;3.11;100.00;102004.44;5019997;23;20045;-76
2023/04/08 03:10:09;;;;;;;78.80;24.17;;;4.70;99.90;;;3.07;100.00;102008.75;4982771;28;20029;-76
2023/04/08 03:12:35;;;;;;;97.35;27.90;;;4.70;99.90;;;3.08;100.00;102015.66;5024145;28;20080;-76
2023/04/08 03:15:03;;;;;;;64.05;18.20;;;4.70;99.90;;;3.04;100.00;102019.13;4996335;28;20040;-76
2023/04/08 03:17:32;;;;;;;104.07;27.98;;;4.70;99.90;;;3.05;100.00;102005.25;5012531;28;20029;-76
2023/04/08 03:19:58;;;;;;;74.32;19.92;;;4.70;99.90;;;3.11;100.00;102013.94;5017115;28;20041;-77
2023/04/08 03:22:24;;;;;;;119.45;29.50;;;4.70;99.90;;;3.16;100.00;102013.13;4999267;28;20041;-76
2023/04/08 03:24:50;;;;;;;128.90;33.33;;;4.70;99.90;;;3.16;100.00;102020.06;5001218;28;20033;-76
2023/04/08 03:27:15;;;;;;;138.35;33.33;;;4.80;99.90;;;3.16;100.00;102012.25;5022545;28;20030;-76
2023/04/08 03:29:46;;;;;;;116.13;27.92;;;4.80;99.90;;;3.19;100.00;102012.25;5032269;28;20132;-77
2023/04/08 03:32:12;;;;;;;74.88;18.92;;;4.80;99.90;;;3.13;100.00;102009.63;5035810;28;20041;-76
2023/04/08 03:34:38;;;;;;;86.75;25.77;;;4.80;99.90;;;3.13;100.00;102017.44;4995124;28;20505;-76
2023/04/08 03:37:04;;;;;;;110.15;32.72;;;4.80;99.90;;;3.24;100.00;102020.94;5001670;28;20029;-76
2023/04/08 03:39:30;;;;;;;111.18;30.33;;;4.80;99.90;;;3.23;100.00;102016.63;5008610;28;20030;-76
2023/04/08 03:42:03;;;;;;;47.25;16.27;;;4.80;99.90;;;3.11;100.00;102020.03;4984203;28;20681;-76
2023/04/08 03:44:29;;;;;;;94.05;27.05;;;4.70;99.90;;;3.11;100.00;102019.16;5003651;28;20517;-76
2023/04/08 03:46:55;;;;;;;95.57;23.02;;;4.80;99.90;;;3.18;100.00;102015.72;5031009;28;20591;-76
2023/04/08 03:49:21;;;;;;;106.28;29.42;;;4.80;99.90;;;3.21;100.00;102020.94;5017145;28;20038;-77
2023/04/08 03:51:47;;;;;;;107.10;29.88;;;4.80;99.90;;;3.21;100.00;102023.53;5013082;28;20561;-76
2023/04/08 03:54:18;;;;;;;86.35;26.48;;;4.80;99.90;;;3.29;100.00;102019.25;5002509;28;20600;-76
2023/04/08 03:56:44;;;;;;;101.65;29.73;;;4.80;99.90;;;3.22;100.00;102020.09;4993936;28;20041;-76
2023/04/08 03:59:09;;;;;;;87.13;25.25;;;4.80;99.90;;;3.18;100.00;102011.38;5001325;28;20161;-76
2023/04/08 04:01:35;;;;;;;89.38;25.30;;;4.80;99.90;;;3.16;100.00;102015.72;4992410;28;20048;-76
2023/04/08 04:04:01;;;;;;;81.43;24.15;;;4.70;99.90;;;3.12;100.00;102020.91;5009363;28;20032;-76
2023/04/08 04:06:27;;;;;;;108.35;29.42;;;4.80;99.90;;;3.26;100.00;102027.03;5013966;28;20106;-76
2023/04/08 04:08:56;;;;;;;94.63;26.92;;;4.80;99.90;;;3.20;100.00;102024.41;5009336;28;20037;-76
2023/04/08 04:11:22;;;;;;;57.78;20.15;;;4.80;99.90;;;3.13;100.00;102020.88;5010618;28;20040;-76
2023/04/08 04:13:48;;;;;;;84.45;25.25;;;4.80;99.90;;;3.19;100.00;102031.34;4999912;28;20037;-76
2023/04/08 04:16:14;;;;;;;94.45;29.27;;;4.80;99.90;;;3.23;100.00;102032.22;4973911;28;20449;-76
2023/04/08 04:18:39;;;;;;;77.70;24.60;;;4.80;99.90;;;3.22;100.00;102035.72;5001095;28;20044;-76
2023/04/08 04:21:08;;;;;;;35.35;11.88;;;5.00;99.90;;;3.11;100.00;102045.16;4984947;28;20103;-77
2023/04/08 04:23:37;;;;;;;62.83;19.65;;;4.80;99.90;;;3.17;100.00;102045.22;4995462;28;20025;-76
2023/04/08 04:26:10;;;;;;;77.13;25.45;;;4.80;99.90;;;3.21;100.00;102033.97;5013514;28;20056;-75
2023/04/08 04:28:37;;;;;;;76.55;25.63;;;4.80;99.90;;;3.24;100.00;102047.88;5008914;28;20049;-76
2023/04/08 04:31:03;;;;;;;70.70;21.85;;;4.80;99.90;;;3.20;100.00;102053.06;5021504;28;20032;-76
2023/04/08 04:33:30;;;;;;;79.32;25.83;;;4.90;99.90;;;3.27;100.00;102041.81;4991834;28;20497;-76
2023/04/08 04:35:56;;;;;;;62.97;21.90;;;4.90;99.90;;;3.28;100.00;102051.34;5026415;28;20053;-76
2023/04/08 04:38:22;;;;;;;103.43;29.88;;;4.90;99.90;;;3.34;100.00;102053.97;4988112;28;20147;-76
2023/04/08 04:40:48;;;;;;;93.07;29.58;;;4.90;99.90;;;3.39;100.00;102056.59;4981677;28;20556;-76
2023/04/08 04:43:14;;;;;;;63.65;18.15;;;4.90;99.90;;;3.26;100.00;102055.66;5006547;28;20044;-76
2023/04/08 04:45:47;;;;;;;59.33;17.60;;;4.90;99.90;;;3.29;100.00;102060.91;5023563;28;20022;-77
2023/04/08 04:48:13;;;;;;;84.82;27.25;;;4.90;99.90;;;3.30;100.00;102062.63;5027737;28;20562;-77
2023/04/08 04:50:38;;;;;;;61.67;19.17;;;4.90;99.90;;;3.21;100.00;102059.97;4987432;28;20140;-76
2023/04/08 04:53:04;;;;;;;78.50;23.92;;;4.90;99.90;;;3.26;100.00;102063.47;4987529;28;20047;-76
2023/04/08 04:55:30;;;;;;;98.55;27.55;;;4.90;99.90;;;3.28;100.00;102065.25;4989401;28;20526;-77
2023/04/08 04:57:56;;;;;;;86.05;24.90;;;5.00;99.90;;;3.37;100.00;102069.63;4985142;28;20439;-77
2023/04/08 05:00:21;;;;;;;96.18;30.15;;;4.90;99.90;;;3.32;100.00;102070.47;5003117;28;20136;-76
2023/04/08 05:02:50;;;;;;;102.78;30.58;;;4.90;99.90;;;3.29;100.00;102072.19;5009517;28;20037;-75
2023/04/08 05:05:16;;;;;;;92.32;26.08;;;4.90;99.90;;;3.33;100.00;102070.47;5000457;28;20120;-76
2023/04/08 05:07:41;;;;;;;102.53;27.95;;;5.00;99.90;;;3.29;100.00;102077.38;5030858;28;20072;-77
2023/04/08 05:10:08;;;;;;;76.32;23.88;;;4.80;99.90;;;3.19;100.00;102069.53;5000240;28;20437;-77
2023/04/08 05:12:34;;;;;;;92.10;27.63;;;4.90;99.90;;;3.30;100.00;102073.03;4984862;28;20128;-77
2023/04/08 05:15:00;;;;;;;48.70;17.35;;;4.80;99.90;;;3.22;100.00;102077.34;5015517;28;20061;-76
2023/04/08 05:17:29;;;;;;;84.22;26.75;;;4.80;99.90;;;3.22;100.00;102077.34;4986701;28;20042;-77
2023/04/08 05:19:54;;;;;;;96.47;29.42;;;4.90;99.90;;;3.36;100.00;102073.06;4995876;28;20036;-77
2023/04/08 05:22:20;;;;;;;68.38;22.45;;;5.00;99.90;;;3.38;100.00;102079.16;5003397;28;20064;-77
2023/04/08 05:24:46;;;;;;;96.93;27.55;;;4.90;99.90;;;3.36;100.00;102091.31;4986194;28;20112;-78
2023/04/08 05:27:12;;;;;;;101.53;28.15;;;5.00;99.90;;;3.39;100.00;102090.44;5006690;28;20037;-77
2023/04/08 05:29:38;;;;;;;84.47;26.45;;;5.00;99.90;;;3.40;100.00;102087.00;5002977;28;20060;-77
2023/04/08 05:32:04;;;;;;;91.25;27.63;;;5.00;99.90;;;3.43;100.00;102097.41;5008559;28;20157;-76
2023/04/08 05:34:33;;;;;;;92.72;27.50;;;5.00;99.90;;;3.46;100.00;102095.69;5004979;28;20041;-76
2023/04/08 05:36:59;;;;;;;77.72;24.17;;;5.00;99.90;;;3.39;100.00;102093.94;4970246;28;20053;-76
2023/04/08 05:39:25;;;;;;;47.88;15.23;;;5.00;99.90;;;3.33;100.00;102093.91;5020465;28;20128;-76
2023/04/08 05:41:51;;;;;;;85.03;23.73;;;5.00;99.90;;;3.36;100.00;102099.09;5001411;28;20033;-76
2023/04/08 05:44:16;;;;;;;104.45;27.92;;;5.00;99.90;;;3.39;100.00;102106.06;5000342;28;20044;-77
2023/04/08 05:46:42;;;;;;;95.10;26.38;;;5.00;99.90;;;3.39;100.00;102101.75;5021167;28;20489;-76
2023/04/08 05:49:10;;;;;;;96.10;26.52;;;5.00;99.90;;;3.41;100.00;102094.81;5019740;28;20037;-77
2023/04/08 05:51:37;;;;;;;103.78;29.60;;;5.00;99.90;;;3.42;100.00;102104.34;5008294;28;20114;-76
2023/04/08 05:54:04;;;;;;;94.38;27.75;;;5.00;99.90;;;3.45;100.00;102108.69;5002004;28;20082;-77
2023/04/08 05:56:31;;;;;;;116.53;29.65;;;5.40;99.90;;;3.52;100.00;102113.09;5015414;28;20105;-77
2023/04/08 05:58:57;;;;;;;125.38;33.13;;;5.10;99.90;;;3.58;100.00;102109.63;5012246;28;20644;-77
2023/04/08 06:01:23;;;;;;;136.63;32.22;;;5.20;99.90;;;3.69;100.00;102110.53;5018313;28;20521;-77
2023/04/08 06:03:54;;;;;;;146.77;33.85;;;5.20;99.90;;;3.68;100.00;102106.22;4990964;28;20103;-77
2023/04/08 06:06:21;;;;;;;131.07;32.45;;;5.20;99.90;;;3.68;100.00;102116.63;5022545;28;20042;-77
2023/04/08 06:08:47;;;;;;;104.53;26.63;;;5.20;99.90;;;3.64;100.00;102114.88;4991335;28;20039;-77
2023/04/08 06:11:14;;;;;;;76.47;18.33;;;5.20;99.90;;;3.58;100.00;102120.06;4998694;28;20033;-76
2023/04/08 06:13:41;;;;;;;112.20;28.02;;;5.20;99.90;;;3.67;100.00;102127.91;5014474;28;20497;-77
2023/04/08 06:16:12;;;;;;;108.93;29.10;;;5.20;99.90;;;3.70;100.00;102120.97;5034533;28;20043;-76
2023/04/08 06:18:38;;;;;;;120.90;32.53;;;5.20;99.90;;;3.64;100.00;102117.47;5025118;28;20623;-77
2023/04/08 06:21:04;;;;;;;94.50;24.45;;;5.30;99.90;;;3.73;100.00;102122.72;4990827;28;22275;-76
2023/04/08 06:23:30;;;;;;;132.88;29.88;;;5.30;99.90;;;3.80;100.00;102132.31;5013658;28;20079;-77
2023/04/08 06:25:57;;;;;;;126.07;33.30;;;5.30;99.90;;;3.80;100.00;102129.72;5002272;28;20030;-77
2023/04/08 06:28:23;;;;;;;80.40;20.48;;;5.40;99.90;;;3.81;100.00;102131.44;4979671;28;20533;-77
2023/04/08 06:30:49;;;;;;;128.63;33.35;;;5.40;99.90;;;3.86;100.00;102129.72;4966997;28;20036;-77
2023/04/08 06:33:15;;;;;;;124.65;33.17;;;5.40;99.90;;;4.00;100.00;102141.94;5013900;28;20036;-77
2023/04/08 06:35:41;;;;;;;71.55;17.05;;;5.40;99.90;;;3.84;100.00;102151.41;5026479;28;20128;-76
2023/04/08 06:38:06;;;;;;;128.73;32.85;;;5.50;99.90;;;4.00;100.00;102155.84;5025933;28;20122;-77
2023/04/08 06:40:32;;;;;;;104.20;29.67;;;5.50;99.90;;;4.05;100.00;102150.63;5003145;28;20032;-77
2023/04/08 06:42:58;;;;;;;105.28;28.85;;;5.60;99.90;;;4.11;100.00;102155.88;5032628;28;20494;-77
2023/04/08 06:45:24;;;;;;;115.30;31.67;;;5.60;99.90;;;4.11;100.00;102164.56;5007296;28;20097;-77
2023/04/08 06:47:51;;;;;;;112.55;31.45;;;5.60;99.90;;;4.18;100.00;102162.84;5005565;28;20053;-76
2023/04/08 06:50:17;;;;;;;100.93;30.63;;;5.70;99.90;;;4.17;100.00;102161.13;5014286;28;20037;-77
2023/04/08 06:52:42;;;;;;;120.80;33.03;;;5.70;99.90;;;4.28;100.00;102174.19;5039607;28;20095;-76
2023/04/08 06:55:08;;;;;;;97.70;30.88;;;5.70;99.90;;;4.26;100.00;102168.09;5040678;28;20140;-77
2023/04/08 06:57:34;;;;;;;112.38;32.83;;;5.80;99.90;;;4.27;100.00;102175.91;5027138;28;20029;-76
2023/04/08 07:00:00;;;;;;;114.95;33.13;;;5.80;99.90;;;4.30;100.00;102177.66;4979274;28;20034;-77
2023/04/08 07:02:26;;;;;;;103.05;31.48;;;5.80;99.90;;;4.28;100.00;102172.44;4987749;28;20044;-76
2023/04/08 07:04:53;;;;;;;102.43;31.85;;;5.70;99.90;;;4.24;100.00;102172.44;5016334;28;20036;-77
2023/04/08 07:07:23;;;;;;;89.00;27.50;;;5.70;99.90;;;4.08;100.00;102177.59;4997754;28;20063;-77
2023/04/08 07:09:50;;;;;;;81.82;26.08;;;5.70;99.90;;;4.13;100.00;102176.75;5017126;28;20041;-77
2023/04/08 07:12:16;;;;;;;91.93;29.55;;;5.70;99.90;;;4.23;100.00;102182.00;4998214;28;20036;-77
2023/04/08 07:14:42;;;;;;;102.90;31.65;;;5.80;99.90;;;4.28;100.00;102184.63;4987503;28;20057;-78
2023/04/08 07:17:09;;;;;;;89.00;27.52;;;5.80;99.90;;;4.34;100.00;102191.56;4963011;28;20570;-77
2023/04/08 07:19:37;;;;;;;91.57;31.35;;;5.80;99.90;;;4.40;100.00;102187.22;5001712;28;20044;-77
2023/04/08 07:22:05;;;;;;;99.97;31.08;;;5.90;99.90;;;4.50;100.00;102191.59;4995216;28;20514;-77
2023/04/08 07:24:30;;;;;;;95.57;30.90;;;6.00;99.90;;;4.62;100.00;102189.88;4997724;28;20517;-77
2023/04/08 07:27:00;;;;;;;100.53;32.05;;;6.10;99.90;;;4.78;100.00;102185.56;5007300;28;20033;-77
2023/04/08 07:29:33;;;;;;;65.38;23.88;;;6.10;99.90;;;4.74;100.00;102179.47;5000523;28;20040;-77
2023/04/08 07:31:59;;;;;;;66.18;24.08;;;6.10;99.90;;;4.77;100.00;102173.38;4962314;28;20033;-78
2023/04/08 07:34:25;;;;;;;66.13;25.42;;;6.20;99.90;;;4.77;100.00;102176.84;5005050;28;20170;-77
2023/04/08 07:36:50;;;;;;;60.13;23.23;;;6.20;99.90;;;4.78;100.00;102169.91;4989691;28;20067;-77
2023/04/08 07:39:16;;;;;;;53.03;18.20;;;6.10;99.90;;;4.56;100.00;102180.31;4988158;28;20045;-77
2023/04/08 07:41:45;;;;;;;45.58;19.45;;;6.10;99.90;;;4.64;100.00;102183.78;4988174;28;20125;-78
2023/04/08 07:44:15;;;;;;;31.65;15.05;;;6.20;99.90;;;4.66;100.00;102184.66;4994388;28;20030;-78
2023/04/08 07:46:41;;;;;;;48.65;18.33;;;6.10;99.90;;;4.65;100.00;102182.94;4986769;28;20116;-77
2023/04/08 07:49:08;;;;;;;36.03;15.27;;;6.20;99.90;;;4.74;100.00;102184.69;5014029;28;20037;-78
2023/04/08 07:51:38;;;;;;;36.95;14.90;;;6.20;99.90;;;4.73;100.00;102183.81;4982870;28;20037;-78
2023/04/08 07:54:04;;;;;;;31.33;13.80;;;6.20;99.90;;;4.69;100.00;102189.91;5014350;28;20057;-78
2023/04/08 07:56:30;;;;;;;20.85;8.82;;;6.20;99.90;;;4.73;100.00;102186.44;5006413;28;20039;-78
2023/04/08 07:58:56;;;;;;;30.60;12.80;;;6.30;99.90;;;4.84;100.00;102188.19;5022026;28;20051;-78
2023/04/08 08:01:23;;;;;;;28.92;12.55;;;6.30;99.90;;;4.90;100.00;102193.38;5019629;28;20067;-78
2023/04/08 08:03:54;;;;;;;24.75;12.07;;;6.30;99.90;;;4.98;100.00;102185.56;4987210;28;20514;-79
2023/04/08 08:06:21;;;;;;;27.77;12.23;;;6.40;99.90;;;5.01;100.00;102196.00;4977621;28;20039;-79
2023/04/08 08:08:46;;;;;;;24.17;11.88;;;6.50;99.90;;;5.10;100.00;102186.44;4978789;28;20053;-79
2023/04/08 08:11:12;;;;;;;22.42;11.18;;;6.50;99.90;;;5.09;100.00;102197.75;4989806;28;20831;-79
2023/04/08 08:13:38;;;;;;;21.83;11.20;;;6.50;99.90;;;5.04;100.00;102191.66;4946384;28;20072;-79
2023/04/08 08:16:07;;;;;;;30.75;13.05;;;6.50;99.90;;;5.11;100.00;102190.78;4956284;28;20500;-79
2023/04/08 08:18:39;;;;;;;35.35;14.80;;;6.60;99.90;;;5.23;100.00;102196.88;4963648;28;20038;-79
2023/04/08 08:21:06;;;;;;;36.25;16.02;;;6.70;99.90;;;5.31;100.00;102198.63;4990629;28;20050;-80
2023/04/08 08:23:32;;;;;;;42.92;17.95;;;6.70;99.90;;;5.30;100.00;102204.69;5009707;28;20059;-80
2023/04/08 08:26:10;;;;;;;45.70;18.05;;;6.70;99.90;;;5.42;100.00;102210.75;4972889;28;20052;-81
2023/04/08 08:28:37;;;;;;;46.97;19.15;;;6.80;99.90;;;5.42;100.00;102216.88;4941688;28;20047;-80
2023/04/08 08:31:15;;;;;;;34.50;15.85;;;6.80;99.90;;;5.33;100.00;102215.16;5006037;28;20027;-80
2023/04/08 08:33:40;;;;;;;50.03;19.50;;;6.70;99.90;;;5.25;100.00;102213.44;5017351;28;20029;-80
2023/04/08 08:36:06;;;;;;;33.83;13.93;;;6.70;99.90;;;5.32;100.00;102228.22;4984822;28;20581;-81
2023/04/08 08:38:40;;;;;;;44.40;17.27;;;6.70;99.90;;;5.24;100.00;102233.44;4960163;28;20025;-81
2023/04/08 08:41:05;;;;;;;43.75;17.98;;;6.70;99.90;;;5.12;100.00;102236.06;4967143;28;21304;-81
2023/04/08 08:43:32;;;;;;;38.33;18.25;;;6.70;99.90;;;5.20;100.00;102236.03;4976344;28;20116;-80
2023/04/08 08:45:58;;;;;;;46.28;18.10;;;6.70;99.90;;;5.24;100.00;102240.41;4956865;28;20144;-80
2023/04/08 08:48:28;;;;;;;43.60;17.65;;;6.70;99.90;;;5.11;100.00;102240.38;4959031;28;20128;-81
2023/04/08 08:50:54;;;;;;;50.72;19.77;;;6.70;99.90;;;5.28;100.00;102229.09;4955570;28;20062;-81
2023/04/08 08:53:22;;;;;;;44.42;16.98;;;6.70;99.90;;;5.24;100.00;102233.44;4951893;28;20069;-80
2023/04/08 08:55:48;;;;;;;41.15;18.17;;;6.70;99.90;;;5.21;100.00;102229.97;4950923;28;20042;-80
2023/04/08 08:58:14;;;;;;;44.17;17.95;;;6.70;99.90;;;5.20;100.00;102234.28;4978605;28;20129;-81
2023/04/08 09:00:44;;;;;;;47.17;16.80;;;6.70;99.90;;;5.22;100.00;102234.31;4975711;28;20029;-81
2023/04/08 09:03:19;;;;;;;43.28;16.83;;;6.70;99.90;;;5.19;100.00;102243.00;4981419;28;20115;-80
2023/04/08 09:05:56;;;;;;;36.13;15.18;;;6.70;99.90;;;5.22;100.00;102239.53;4987587;28;20080;-80
2023/04/08 09:08:34;;;;;;;40.65;17.40;;;6.70;99.90;;;5.26;100.00;102243.88;5003238;23;20087;-81
2023/04/08 09:11:13;;;;;;;36.20;14.88;;;6.60;99.90;;;5.16;100.00;102236.91;5013604;28;20486;-80
2023/04/08 09:13:43;;;;;;;47.88;17.98;;;6.60;99.90;;;5.15;100.00;102249.09;4998257;28;20037;-80
2023/04/08 09:16:18;;;;;;;44.15;17.48;;;6.70;99.90;;;5.28;100.00;102247.38;4977852;28;20112;-80
2023/04/08 09:18:48;;;;;;;45.33;17.25;;;6.80;99.90;;;5.34;100.00;102253.44;4998161;28;20410;-79
2023/04/08 09:21:19;;;;;;;43.47;17.42;;;6.80;99.90;;;5.40;100.00;102252.59;4945692;28;20106;-80
2023/04/08 09:23:50;;;;;;;36.60;17.15;;;6.80;99.90;;;5.48;100.00;102257.78;4911170;28;20037;-81
2023/04/08 09:26:23;;;;;;;22.58;9.23;;;6.90;99.90;;;5.47;100.00;102259.53;4982508;28;20030;-79
2023/04/08 09:29:02;;;;;;;37.10;15.45;;;7.00;99.90;;;5.65;100.00;102257.78;4952764;28;20061;-79
2023/04/08 09:31:40;;;;;;;21.80;11.25;;;7.00;99.90;;;5.63;100.00;102267.34;4993930;28;20048;-80
2023/04/08 09:34:25;;;;;;;35.67;14.00;;;7.00;99.90;;;5.68;100.00;102268.22;4995508;28;20064;-81
2023/04/08 09:36:57;;;;;;;28.42;13.23;;;7.10;99.90;;;5.72;100.00;102270.84;4968837;28;20043;-81
2023/04/08 09:39:26;;;;;;;31.05;12.10;;;7.00;99.90;;;5.56;100.00;102271.72;4976061;28;20156;-81
2023/04/08 09:42:00;;;;;;;30.23;14.63;;;7.10;99.90;;;5.84;100.00;102267.31;4985982;28;20052;-80
2023/04/08 09:44:32;;;;;;;27.83;12.35;;;7.10;99.90;;;5.67;100.00;102263.88;4938535;28;20038;-80
2023/04/08 09:47:18;;;;;;;28.75;12.50;;;7.20;99.90;;;5.94;100.00;102273.41;4919361;28;20044;-80
2023/04/08 09:49:54;;;;;;;33.67;14.57;;;7.20;99.90;;;5.93;100.00;102269.03;4986197;28;20215;-79
2023/04/08 09:52:47;;;;;;;20.50;8.73;;;7.30;99.90;;;5.71;100.00;102273.44;4948867;28;20277;-80
2023/04/08 09:55:18;;;;;;;31.55;11.48;;;7.20;99.90;;;5.72;100.00;102273.47;4950348;28;20030;-80
2023/04/08 09:58:15;;;;;;;36.22;15.02;;;7.30;99.90;;;5.88;100.00;102274.28;4966873;28;20510;-80
2023/04/08 10:00:54;;;;;;;24.90;11.43;;;7.30;99.90;;;5.89;100.00;102273.41;4942272;28;20037;-81
2023/04/08 10:03:41;;;;;;;39.92;14.82;;;7.40;99.90;;;6.03;100.00;102277.78;4959932;28;20714;-80
2023/04/08 10:06:11;;;;;;;31.83;14.40;;;7.40;99.90;;;6.12;100.00;102290.81;4944810;28;20560;-80
2023/04/08 10:08:37;;;;;;;34.80;14.88;;;7.50;99.90;;;5.97;100.00;102276.03;4956342;23;20051;-81